sensor_id;sensor_type;location;lat;lon;timestamp;temperature;humidity
78479;SHT31;67769;51.972;5.668;2023-05-07T00:02:00;18.6;66.6
78479;SHT31;67769;51.972;5.668;2023-05-07T00:04:31;18.6;66.8
78479;SHT31;67769;51.972;5.668;2023-05-07T00:07:04;18.7;66.2
78479;SHT31;67769;51.972;5.668;2023-05-07T00:09:35;18.7;65.8
78479;SHT31;67769;51.972;5.668;2023-05-07T00:12:06;18.7;65.6
78479;SHT31;67769;51.972;5.668;2023-05-07T00:14:36;18.8;65.8
78479;SHT31;67769;51.972;5.668;2023-05-07T00:17:08;18.8;65.4
78479;SHT31;67769;51.972;5.668;2023-05-07T00:19:38;18.8;65.2
78479;SHT31;67769;51.972;5.668;2023-05-07T00:22:08;18.8;65.1
78479;SHT31;67769;51.972;5.668;2023-05-07T00:24:38;18.8;64.9
78479;SHT31;67769;51.972;5.668;2023-05-07T00:27:07;18.8;64.7
78479;SHT31;67769;51.972;5.668;2023-05-07T00:29:38;18.8;64.6
78479;SHT31;67769;51.972;5.668;2023-05-07T00:32:08;18.7;64.6
78479;SHT31;67769;51.972;5.668;2023-05-07T00:34:38;18.7;64.7
78479;SHT31;67769;51.972;5.668;2023-05-07T00:37:08;18.7;64.8
78479;SHT31;67769;51.972;5.668;2023-05-07T00:39:39;18.7;64.7
78479;SHT31;67769;51.972;5.668;2023-05-07T00:42:08;18.7;64.6
78479;SHT31;67769;51.972;5.668;2023-05-07T00:44:38;18.6;64.7
78479;SHT31;67769;51.972;5.668;2023-05-07T00:47:08;18.6;64.9
78479;SHT31;67769;51.972;5.668;2023-05-07T00:49:39;18.6;64.8
78479;SHT31;67769;51.972;5.668;2023-05-07T00:52:11;18.5;65.1
78479;SHT31;67769;51.972;5.668;2023-05-07T00:54:43;18.5;65.3
78479;SHT31;67769;51.972;5.668;2023-05-07T00:57:12;18.5;65.5
78479;SHT31;67769;51.972;5.668;2023-05-07T00:59:42;18.5;65.6
78479;SHT31;67769;51.972;5.668;2023-05-07T01:02:12;18.4;65.4
78479;SHT31;67769;51.972;5.668;2023-05-07T01:04:44;18.4;65.4
78479;SHT31;67769;51.972;5.668;2023-05-07T01:07:14;18.4;65.5
78479;SHT31;67769;51.972;5.668;2023-05-07T01:09:44;18.4;65.6
78479;SHT31;67769;51.972;5.668;2023-05-07T01:12:14;18.3;65.6
78479;SHT31;67769;51.972;5.668;2023-05-07T01:14:44;18.3;66.1
78479;SHT31;67769;51.972;5.668;2023-05-07T01:17:13;18.3;65.9
78479;SHT31;67769;51.972;5.668;2023-05-07T01:19:43;18.3;66.2
78479;SHT31;67769;51.972;5.668;2023-05-07T01:22:16;18.3;66.1
78479;SHT31;67769;51.972;5.668;2023-05-07T01:24:50;18.3;66.3
78479;SHT31;67769;51.972;5.668;2023-05-07T01:27:21;18.3;66.5
78479;SHT31;67769;51.972;5.668;2023-05-07T01:29:51;18.2;66.1
78479;SHT31;67769;51.972;5.668;2023-05-07T01:32:26;18.2;66.3
78479;SHT31;67769;51.972;5.668;2023-05-07T01:34:57;18.2;66.4
78479;SHT31;67769;51.972;5.668;2023-05-07T01:37:28;18.2;66.1
78479;SHT31;67769;51.972;5.668;2023-05-07T01:39:58;18.2;66.4
78479;SHT31;67769;51.972;5.668;2023-05-07T01:42:29;18.2;66.3
78479;SHT31;67769;51.972;5.668;2023-05-07T01:44:59;18.2;66.6
78479;SHT31;67769;51.972;5.668;2023-05-07T01:47:30;18.2;66.4
78479;SHT31;67769;51.972;5.668;2023-05-07T01:50:00;18.2;66.4
78479;SHT31;67769;51.972;5.668;2023-05-07T01:52:31;18.2;66.3
78479;SHT31;67769;51.972;5.668;2023-05-07T01:55:00;18.1;66.3
78479;SHT31;67769;51.972;5.668;2023-05-07T01:57:30;18.1;66.1
78479;SHT31;67769;51.972;5.668;2023-05-07T01:59:59;18.1;66.0
78479;SHT31;67769;51.972;5.668;2023-05-07T02:02:32;18.2;66.5
78479;SHT31;67769;51.972;5.668;2023-05-07T02:05:02;18.3;66.3
78479;SHT31;67769;51.972;5.668;2023-05-07T02:07:32;18.4;65.7
78479;SHT31;67769;51.972;5.668;2023-05-07T02:10:02;18.4;65.2
78479;SHT31;67769;51.972;5.668;2023-05-07T02:12:32;18.5;64.8
78479;SHT31;67769;51.972;5.668;2023-05-07T02:15:02;18.5;64.7
78479;SHT31;67769;51.972;5.668;2023-05-07T02:17:32;18.5;65.3
78479;SHT31;67769;51.972;5.668;2023-05-07T02:20:03;18.4;64.6
78479;SHT31;67769;51.972;5.668;2023-05-07T02:22:34;18.4;64.5
78479;SHT31;67769;51.972;5.668;2023-05-07T02:25:04;18.4;64.8
78479;SHT31;67769;51.972;5.668;2023-05-07T02:27:34;18.4;64.9
78479;SHT31;67769;51.972;5.668;2023-05-07T02:30:04;18.4;65.4
78479;SHT31;67769;51.972;5.668;2023-05-07T02:32:34;18.3;65.5
78479;SHT31;67769;51.972;5.668;2023-05-07T02:35:04;18.3;65.4
78479;SHT31;67769;51.972;5.668;2023-05-07T02:37:34;18.3;65.4
78479;SHT31;67769;51.972;5.668;2023-05-07T02:40:05;18.3;65.4
78479;SHT31;67769;51.972;5.668;2023-05-07T02:42:35;18.4;65.5
78479;SHT31;67769;51.972;5.668;2023-05-07T02:45:05;18.4;65.5
78479;SHT31;67769;51.972;5.668;2023-05-07T02:47:35;18.4;65.3
78479;SHT31;67769;51.972;5.668;2023-05-07T02:50:06;18.4;65.6
78479;SHT31;67769;51.972;5.668;2023-05-07T02:52:35;18.4;65.9
78479;SHT31;67769;51.972;5.668;2023-05-07T02:55:06;18.4;65.9
78479;SHT31;67769;51.972;5.668;2023-05-07T02:57:35;18.4;65.9
78479;SHT31;67769;51.972;5.668;2023-05-07T03:00:17;18.5;65.9
78479;SHT31;67769;51.972;5.668;2023-05-07T03:02:47;18.5;65.8
78479;SHT31;67769;51.972;5.668;2023-05-07T03:05:19;18.5;65.7
78479;SHT31;67769;51.972;5.668;2023-05-07T03:07:48;18.5;65.6
78479;SHT31;67769;51.972;5.668;2023-05-07T03:10:18;18.5;65.3
78479;SHT31;67769;51.972;5.668;2023-05-07T03:12:48;18.5;65.2
78479;SHT31;67769;51.972;5.668;2023-05-07T03:15:19;18.5;65.2
78479;SHT31;67769;51.972;5.668;2023-05-07T03:17:49;18.5;65.1
78479;SHT31;67769;51.972;5.668;2023-05-07T03:20:19;18.5;64.6
78479;SHT31;67769;51.972;5.668;2023-05-07T03:22:48;18.5;64.5
78479;SHT31;67769;51.972;5.668;2023-05-07T03:25:18;18.5;64.6
78479;SHT31;67769;51.972;5.668;2023-05-07T03:27:48;18.5;64.1
78479;SHT31;67769;51.972;5.668;2023-05-07T03:30:17;18.4;64.1
78479;SHT31;67769;51.972;5.668;2023-05-07T03:32:47;18.4;64.5
78479;SHT31;67769;51.972;5.668;2023-05-07T03:35:19;18.4;64.0
78479;SHT31;67769;51.972;5.668;2023-05-07T03:37:49;18.3;64.3
78479;SHT31;67769;51.972;5.668;2023-05-07T03:40:18;18.3;64.2
78479;SHT31;67769;51.972;5.668;2023-05-07T03:42:48;18.3;64.1
78479;SHT31;67769;51.972;5.668;2023-05-07T03:45:18;18.3;64.4
78479;SHT31;67769;51.972;5.668;2023-05-07T03:47:47;18.2;64.5
78479;SHT31;67769;51.972;5.668;2023-05-07T03:50:17;18.2;64.6
78479;SHT31;67769;51.972;5.668;2023-05-07T03:52:46;18.2;64.4
78479;SHT31;67769;51.972;5.668;2023-05-07T03:55:16;18.2;64.8
78479;SHT31;67769;51.972;5.668;2023-05-07T03:57:45;18.1;65.1
78479;SHT31;67769;51.972;5.668;2023-05-07T04:00:19;18.1;65.6
78479;SHT31;67769;51.972;5.668;2023-05-07T04:02:51;18.2;65.7
78479;SHT31;67769;51.972;5.668;2023-05-07T04:05:23;18.3;65.4
78479;SHT31;67769;51.972;5.668;2023-05-07T04:07:53;18.4;65.0
78479;SHT31;67769;51.972;5.668;2023-05-07T04:10:23;18.5;64.6
78479;SHT31;67769;51.972;5.668;2023-05-07T04:12:53;18.5;64.4
78479;SHT31;67769;51.972;5.668;2023-05-07T04:15:25;18.4;64.3
78479;SHT31;67769;51.972;5.668;2023-05-07T04:17:54;18.4;64.6
78479;SHT31;67769;51.972;5.668;2023-05-07T04:20:24;18.4;64.9
78479;SHT31;67769;51.972;5.668;2023-05-07T04:22:53;18.4;64.8
78479;SHT31;67769;51.972;5.668;2023-05-07T04:25:23;18.3;65.0
78479;SHT31;67769;51.972;5.668;2023-05-07T04:27:53;18.3;65.1
78479;SHT31;67769;51.972;5.668;2023-05-07T04:30:23;18.3;65.4
78479;SHT31;67769;51.972;5.668;2023-05-07T04:32:53;18.3;65.3
78479;SHT31;67769;51.972;5.668;2023-05-07T04:35:23;18.2;65.7
78479;SHT31;67769;51.972;5.668;2023-05-07T04:37:53;18.2;65.8
78479;SHT31;67769;51.972;5.668;2023-05-07T04:40:22;18.2;65.9
78479;SHT31;67769;51.972;5.668;2023-05-07T04:42:52;18.2;66.3
78479;SHT31;67769;51.972;5.668;2023-05-07T04:45:24;18.2;66.1
78479;SHT31;67769;51.972;5.668;2023-05-07T04:47:54;18.2;66.3
78479;SHT31;67769;51.972;5.668;2023-05-07T04:50:23;18.2;66.2
78479;SHT31;67769;51.972;5.668;2023-05-07T04:52:53;18.2;66.1
78479;SHT31;67769;51.972;5.668;2023-05-07T04:55:25;18.2;66.4
78479;SHT31;67769;51.972;5.668;2023-05-07T04:57:54;18.2;66.5
78479;SHT31;67769;51.972;5.668;2023-05-07T05:00:24;18.2;66.3
78479;SHT31;67769;51.972;5.668;2023-05-07T05:02:54;18.2;66.3
78479;SHT31;67769;51.972;5.668;2023-05-07T05:05:23;18.2;66.4
78479;SHT31;67769;51.972;5.668;2023-05-07T05:07:53;18.2;66.4
78479;SHT31;67769;51.972;5.668;2023-05-07T05:10:22;18.2;66.3
78479;SHT31;67769;51.972;5.668;2023-05-07T05:12:52;18.2;66.4
78479;SHT31;67769;51.972;5.668;2023-05-07T05:15:22;18.2;66.5
78479;SHT31;67769;51.972;5.668;2023-05-07T05:17:51;18.2;66.6
78479;SHT31;67769;51.972;5.668;2023-05-07T05:20:23;18.2;66.5
78479;SHT31;67769;51.972;5.668;2023-05-07T05:22:53;18.2;66.8
78479;SHT31;67769;51.972;5.668;2023-05-07T05:25:22;18.2;67.0
78479;SHT31;67769;51.972;5.668;2023-05-07T05:27:52;18.1;67.0
78479;SHT31;67769;51.972;5.668;2023-05-07T05:30:22;18.1;67.0
78479;SHT31;67769;51.972;5.668;2023-05-07T05:32:52;18.1;67.2
78479;SHT31;67769;51.972;5.668;2023-05-07T05:35:21;18.1;67.1
78479;SHT31;67769;51.972;5.668;2023-05-07T05:37:51;18.1;67.4
78479;SHT31;67769;51.972;5.668;2023-05-07T05:40:21;18.1;67.4
78479;SHT31;67769;51.972;5.668;2023-05-07T05:42:50;18.1;67.7
78479;SHT31;67769;51.972;5.668;2023-05-07T05:45:20;18.1;67.7
78479;SHT31;67769;51.972;5.668;2023-05-07T05:47:50;18.1;67.9
78479;SHT31;67769;51.972;5.668;2023-05-07T05:50:19;18.1;67.9
78479;SHT31;67769;51.972;5.668;2023-05-07T05:52:49;18.2;68.0
78479;SHT31;67769;51.972;5.668;2023-05-07T05:55:18;18.2;68.1
78479;SHT31;67769;51.972;5.668;2023-05-07T05:57:51;18.2;67.8
78479;SHT31;67769;51.972;5.668;2023-05-07T06:00:24;18.3;67.8
78479;SHT31;67769;51.972;5.668;2023-05-07T06:02:54;18.4;67.4
78479;SHT31;67769;51.972;5.668;2023-05-07T06:05:23;18.5;66.9
78479;SHT31;67769;51.972;5.668;2023-05-07T06:07:53;18.5;66.7
78479;SHT31;67769;51.972;5.668;2023-05-07T06:10:24;18.5;66.6
78479;SHT31;67769;51.972;5.668;2023-05-07T06:12:54;18.5;66.5
78479;SHT31;67769;51.972;5.668;2023-05-07T06:15:24;18.6;66.5
78479;SHT31;67769;51.972;5.668;2023-05-07T06:17:53;18.6;66.3
78479;SHT31;67769;51.972;5.668;2023-05-07T06:20:24;18.6;66.5
78479;SHT31;67769;51.972;5.668;2023-05-07T06:22:56;18.6;66.6
78479;SHT31;67769;51.972;5.668;2023-05-07T06:25:25;18.6;66.6
78479;SHT31;67769;51.972;5.668;2023-05-07T06:27:55;18.6;67.1
78479;SHT31;67769;51.972;5.668;2023-05-07T06:30:24;18.6;66.8
78479;SHT31;67769;51.972;5.668;2023-05-07T06:32:54;18.6;67.1
78479;SHT31;67769;51.972;5.668;2023-05-07T06:35:24;18.7;66.8
78479;SHT31;67769;51.972;5.668;2023-05-07T06:37:53;18.7;66.8
78479;SHT31;67769;51.972;5.668;2023-05-07T06:40:23;18.7;67.0
78479;SHT31;67769;51.972;5.668;2023-05-07T06:42:52;18.7;66.8
78479;SHT31;67769;51.972;5.668;2023-05-07T06:45:22;18.8;66.4
78479;SHT31;67769;51.972;5.668;2023-05-07T06:47:52;18.8;66.2
78479;SHT31;67769;51.972;5.668;2023-05-07T06:50:22;18.8;66.3
78479;SHT31;67769;51.972;5.668;2023-05-07T06:52:51;18.8;66.4
78479;SHT31;67769;51.972;5.668;2023-05-07T06:55:21;18.9;66.2
78479;SHT31;67769;51.972;5.668;2023-05-07T06:57:50;18.9;66.5
78479;SHT31;67769;51.972;5.668;2023-05-07T07:00:20;18.9;65.9
78479;SHT31;67769;51.972;5.668;2023-05-07T07:02:50;19.0;65.8
78479;SHT31;67769;51.972;5.668;2023-05-07T07:05:20;19.0;66.2
78479;SHT31;67769;51.972;5.668;2023-05-07T07:07:50;19.0;66.1
78479;SHT31;67769;51.972;5.668;2023-05-07T07:10:21;19.1;65.8
78479;SHT31;67769;51.972;5.668;2023-05-07T07:12:51;19.1;66.1
78479;SHT31;67769;51.972;5.668;2023-05-07T07:15:21;19.1;66.0
78479;SHT31;67769;51.972;5.668;2023-05-07T07:17:52;19.2;65.4
78479;SHT31;67769;51.972;5.668;2023-05-07T07:20:24;19.2;65.6
78479;SHT31;67769;51.972;5.668;2023-05-07T07:22:53;19.2;65.4
78479;SHT31;67769;51.972;5.668;2023-05-07T07:25:23;19.3;65.3
78479;SHT31;67769;51.972;5.668;2023-05-07T07:27:52;19.3;65.6
78479;SHT31;67769;51.972;5.668;2023-05-07T07:30:22;19.3;65.7
78479;SHT31;67769;51.972;5.668;2023-05-07T07:32:54;19.4;65.8
78479;SHT31;67769;51.972;5.668;2023-05-07T07:35:29;19.4;65.4
78479;SHT31;67769;51.972;5.668;2023-05-07T07:37:59;19.4;66.0
78479;SHT31;67769;51.972;5.668;2023-05-07T07:40:31;19.5;65.7
78479;SHT31;67769;51.972;5.668;2023-05-07T07:43:00;19.5;66.0
78479;SHT31;67769;51.972;5.668;2023-05-07T07:45:30;19.5;65.6
78479;SHT31;67769;51.972;5.668;2023-05-07T07:47:59;19.5;65.3
78479;SHT31;67769;51.972;5.668;2023-05-07T07:50:29;19.5;65.6
78479;SHT31;67769;51.972;5.668;2023-05-07T07:52:59;19.6;65.4
78479;SHT31;67769;51.972;5.668;2023-05-07T07:55:28;19.6;65.2
78479;SHT31;67769;51.972;5.668;2023-05-07T07:57:59;19.6;65.2
78479;SHT31;67769;51.972;5.668;2023-05-07T08:00:29;19.7;65.3
78479;SHT31;67769;51.972;5.668;2023-05-07T08:02:58;19.8;65.0
78479;SHT31;67769;51.972;5.668;2023-05-07T08:05:29;19.9;65.4
78479;SHT31;67769;51.972;5.668;2023-05-07T08:07:58;19.9;65.1
78479;SHT31;67769;51.972;5.668;2023-05-07T08:10:28;19.9;64.8
78479;SHT31;67769;51.972;5.668;2023-05-07T08:13:02;20.0;64.2
78479;SHT31;67769;51.972;5.668;2023-05-07T08:15:31;20.0;65.2
78479;SHT31;67769;51.972;5.668;2023-05-07T08:18:02;20.0;64.4
78479;SHT31;67769;51.972;5.668;2023-05-07T08:20:34;20.1;64.7
78479;SHT31;67769;51.972;5.668;2023-05-07T08:23:06;20.1;64.4
78479;SHT31;67769;51.972;5.668;2023-05-07T08:25:36;20.1;64.4
78479;SHT31;67769;51.972;5.668;2023-05-07T08:28:06;20.2;63.5
78479;SHT31;67769;51.972;5.668;2023-05-07T08:30:35;20.3;63.6
78479;SHT31;67769;51.972;5.668;2023-05-07T08:33:05;20.3;62.8
78479;SHT31;67769;51.972;5.668;2023-05-07T08:35:34;20.3;61.5
78479;SHT31;67769;51.972;5.668;2023-05-07T08:38:04;20.4;62.4
78479;SHT31;67769;51.972;5.668;2023-05-07T08:40:37;20.4;61.7
78479;SHT31;67769;51.972;5.668;2023-05-07T08:43:12;20.4;62.3
78479;SHT31;67769;51.972;5.668;2023-05-07T08:45:45;20.5;62.1
78479;SHT31;67769;51.972;5.668;2023-05-07T08:48:17;20.5;61.4
78479;SHT31;67769;51.972;5.668;2023-05-07T08:50:47;20.6;62.1
78479;SHT31;67769;51.972;5.668;2023-05-07T08:53:17;20.6;62.1
78479;SHT31;67769;51.972;5.668;2023-05-07T08:55:48;20.7;62.2
78479;SHT31;67769;51.972;5.668;2023-05-07T08:58:18;20.8;62.5
78479;SHT31;67769;51.972;5.668;2023-05-07T09:00:48;20.9;61.4
78479;SHT31;67769;51.972;5.668;2023-05-07T09:03:17;21.0;61.6
78479;SHT31;67769;51.972;5.668;2023-05-07T09:05:47;21.1;62.0
78479;SHT31;67769;51.972;5.668;2023-05-07T09:08:16;21.2;61.1
78479;SHT31;67769;51.972;5.668;2023-05-07T09:10:48;21.3;61.0
78479;SHT31;67769;51.972;5.668;2023-05-07T09:13:20;21.5;60.8
78479;SHT31;67769;51.972;5.668;2023-05-07T09:15:49;21.6;59.3
78479;SHT31;67769;51.972;5.668;2023-05-07T09:18:21;21.8;60.1
78479;SHT31;67769;51.972;5.668;2023-05-07T09:20:51;21.9;58.2
78479;SHT31;67769;51.972;5.668;2023-05-07T09:23:22;22.1;57.6
78479;SHT31;67769;51.972;5.668;2023-05-07T09:26:01;22.3;56.7
78479;SHT31;67769;51.972;5.668;2023-05-07T09:28:31;22.5;56.9
78479;SHT31;67769;51.972;5.668;2023-05-07T09:31:03;22.6;56.5
78479;SHT31;67769;51.972;5.668;2023-05-07T09:33:33;22.8;54.8
78479;SHT31;67769;51.972;5.668;2023-05-07T09:36:05;22.9;53.7
78479;SHT31;67769;51.972;5.668;2023-05-07T09:38:36;23.0;54.1
78479;SHT31;67769;51.972;5.668;2023-05-07T09:41:08;23.0;53.7
78479;SHT31;67769;51.972;5.668;2023-05-07T09:43:40;23.1;53.5
78479;SHT31;67769;51.972;5.668;2023-05-07T09:46:13;23.2;53.4
78479;SHT31;67769;51.972;5.668;2023-05-07T09:48:44;23.2;52.7
78479;SHT31;67769;51.972;5.668;2023-05-07T09:51:22;23.3;53.3
78479;SHT31;67769;51.972;5.668;2023-05-07T09:53:56;23.3;52.7
78479;SHT31;67769;51.972;5.668;2023-05-07T09:56:30;23.4;52.9
78479;SHT31;67769;51.972;5.668;2023-05-07T09:59:03;23.6;52.5
78479;SHT31;67769;51.972;5.668;2023-05-07T10:01:36;23.8;50.3
78479;SHT31;67769;51.972;5.668;2023-05-07T10:04:06;23.8;50.2
78479;SHT31;67769;51.972;5.668;2023-05-07T10:06:38;23.9;50.7
78479;SHT31;67769;51.972;5.668;2023-05-07T10:09:08;23.8;50.6
78479;SHT31;67769;51.972;5.668;2023-05-07T10:11:39;23.8;50.3
78479;SHT31;67769;51.972;5.668;2023-05-07T10:14:12;23.8;50.3
78479;SHT31;67769;51.972;5.668;2023-05-07T10:16:43;23.8;50.9
78479;SHT31;67769;51.972;5.668;2023-05-07T10:19:13;23.7;50.4
78479;SHT31;67769;51.972;5.668;2023-05-07T10:21:54;23.7;50.4
78479;SHT31;67769;51.972;5.668;2023-05-07T10:24:28;23.7;50.9
78479;SHT31;67769;51.972;5.668;2023-05-07T10:27:05;23.7;50.5
78479;SHT31;67769;51.972;5.668;2023-05-07T10:29:48;23.7;50.9
78479;SHT31;67769;51.972;5.668;2023-05-07T10:32:35;23.7;51.1
78479;SHT31;67769;51.972;5.668;2023-05-07T10:35:11;23.7;50.9
78479;SHT31;67769;51.972;5.668;2023-05-07T10:37:45;23.7;51.4
78479;SHT31;67769;51.972;5.668;2023-05-07T10:40:15;23.7;51.8
78479;SHT31;67769;51.972;5.668;2023-05-07T10:42:57;23.7;51.2
78479;SHT31;67769;51.972;5.668;2023-05-07T10:45:28;23.7;51.0
78479;SHT31;67769;51.972;5.668;2023-05-07T10:48:09;23.8;50.7
78479;SHT31;67769;51.972;5.668;2023-05-07T10:50:41;23.8;51.4
78479;SHT31;67769;51.972;5.668;2023-05-07T10:53:26;23.8;51.2
78479;SHT31;67769;51.972;5.668;2023-05-07T10:56:27;23.9;51.0
78479;SHT31;67769;51.972;5.668;2023-05-07T10:59:31;24.0;50.3
78479;SHT31;67769;51.972;5.668;2023-05-07T11:02:03;24.0;50.0
78479;SHT31;67769;51.972;5.668;2023-05-07T11:04:35;24.0;50.8
78479;SHT31;67769;51.972;5.668;2023-05-07T11:07:28;24.1;51.0
78479;SHT31;67769;51.972;5.668;2023-05-07T11:09:59;24.2;50.5
78479;SHT31;67769;51.972;5.668;2023-05-07T11:12:55;24.2;50.3
78479;SHT31;67769;51.972;5.668;2023-05-07T11:15:39;24.3;48.6
78479;SHT31;67769;51.972;5.668;2023-05-07T11:18:11;24.3;48.7
78479;SHT31;67769;51.972;5.668;2023-05-07T11:20:48;24.4;49.1
78479;SHT31;67769;51.972;5.668;2023-05-07T11:23:58;24.4;49.2
78479;SHT31;67769;51.972;5.668;2023-05-07T11:26:48;24.5;50.0
78479;SHT31;67769;51.972;5.668;2023-05-07T11:29:20;24.5;49.1
78479;SHT31;67769;51.972;5.668;2023-05-07T11:31:51;24.5;49.2
78479;SHT31;67769;51.972;5.668;2023-05-07T11:34:26;24.6;50.2
78479;SHT31;67769;51.972;5.668;2023-05-07T11:36:55;24.6;48.7
78479;SHT31;67769;51.972;5.668;2023-05-07T11:39:30;24.7;48.3
78479;SHT31;67769;51.972;5.668;2023-05-07T11:42:00;24.7;47.2
78479;SHT31;67769;51.972;5.668;2023-05-07T11:44:42;24.7;46.4
78479;SHT31;67769;51.972;5.668;2023-05-07T11:47:17;24.8;48.5
78479;SHT31;67769;51.972;5.668;2023-05-07T11:49:49;24.8;48.9
78479;SHT31;67769;51.972;5.668;2023-05-07T11:52:22;24.8;48.3
78479;SHT31;67769;51.972;5.668;2023-05-07T11:54:53;24.8;49.3
78479;SHT31;67769;51.972;5.668;2023-05-07T11:57:24;24.8;50.0
78479;SHT31;67769;51.972;5.668;2023-05-07T11:59:55;25.0;50.0
78479;SHT31;67769;51.972;5.668;2023-05-07T12:02:26;25.1;49.2
78479;SHT31;67769;51.972;5.668;2023-05-07T12:04:55;25.1;49.2
78479;SHT31;67769;51.972;5.668;2023-05-07T12:07:27;25.1;48.5
78479;SHT31;67769;51.972;5.668;2023-05-07T12:09:57;25.2;47.9
78479;SHT31;67769;51.972;5.668;2023-05-07T12:12:26;25.2;48.1
78479;SHT31;67769;51.972;5.668;2023-05-07T12:14:56;25.2;47.4
78479;SHT31;67769;51.972;5.668;2023-05-07T12:17:26;25.2;47.7
78479;SHT31;67769;51.972;5.668;2023-05-07T12:19:56;25.2;47.6
78479;SHT31;67769;51.972;5.668;2023-05-07T12:22:26;25.2;48.0
78479;SHT31;67769;51.972;5.668;2023-05-07T12:24:58;25.3;47.3
78479;SHT31;67769;51.972;5.668;2023-05-07T12:27:31;25.3;48.0
78479;SHT31;67769;51.972;5.668;2023-05-07T12:30:01;25.3;47.2
78479;SHT31;67769;51.972;5.668;2023-05-07T12:32:31;25.4;47.2
78479;SHT31;67769;51.972;5.668;2023-05-07T12:35:08;25.5;46.5
78479;SHT31;67769;51.972;5.668;2023-05-07T12:37:37;25.6;46.4
78479;SHT31;67769;51.972;5.668;2023-05-07T12:40:09;25.6;47.0
78479;SHT31;67769;51.972;5.668;2023-05-07T12:42:40;25.7;46.7
78479;SHT31;67769;51.972;5.668;2023-05-07T12:45:12;25.8;46.4
78479;SHT31;67769;51.972;5.668;2023-05-07T12:47:45;25.9;46.5
78479;SHT31;67769;51.972;5.668;2023-05-07T12:50:16;26.0;46.4
78479;SHT31;67769;51.972;5.668;2023-05-07T12:52:47;26.0;45.3
78479;SHT31;67769;51.972;5.668;2023-05-07T12:55:19;26.0;45.1
78479;SHT31;67769;51.972;5.668;2023-05-07T12:57:50;26.1;44.4
78479;SHT31;67769;51.972;5.668;2023-05-07T13:00:36;26.1;45.1
78479;SHT31;67769;51.972;5.668;2023-05-07T13:03:06;26.0;44.2
78479;SHT31;67769;51.972;5.668;2023-05-07T13:05:36;26.0;44.0
78479;SHT31;67769;51.972;5.668;2023-05-07T13:08:07;26.0;44.0
78479;SHT31;67769;51.972;5.668;2023-05-07T13:10:37;26.0;45.4
78479;SHT31;67769;51.972;5.668;2023-05-07T13:13:06;25.9;45.7
78479;SHT31;67769;51.972;5.668;2023-05-07T13:15:36;25.9;45.6
78479;SHT31;67769;51.972;5.668;2023-05-07T13:18:06;25.9;46.0
78479;SHT31;67769;51.972;5.668;2023-05-07T13:20:37;25.8;46.1
78479;SHT31;67769;51.972;5.668;2023-05-07T13:23:08;25.8;45.7
78479;SHT31;67769;51.972;5.668;2023-05-07T13:25:37;25.8;46.1
78479;SHT31;67769;51.972;5.668;2023-05-07T13:28:07;25.8;46.0
78479;SHT31;67769;51.972;5.668;2023-05-07T13:30:37;25.8;45.9
78479;SHT31;67769;51.972;5.668;2023-05-07T13:33:08;25.8;45.9
78479;SHT31;67769;51.972;5.668;2023-05-07T13:35:41;25.8;45.3
78479;SHT31;67769;51.972;5.668;2023-05-07T13:38:10;25.8;45.6
78479;SHT31;67769;51.972;5.668;2023-05-07T13:40:40;25.8;44.7
78479;SHT31;67769;51.972;5.668;2023-05-07T13:43:10;25.8;43.8
78479;SHT31;67769;51.972;5.668;2023-05-07T13:45:39;25.9;44.9
78479;SHT31;67769;51.972;5.668;2023-05-07T13:48:09;25.9;45.4
78479;SHT31;67769;51.972;5.668;2023-05-07T13:50:38;26.0;44.1
78479;SHT31;67769;51.972;5.668;2023-05-07T13:53:08;26.1;43.3
78479;SHT31;67769;51.972;5.668;2023-05-07T13:55:38;26.1;44.1
78479;SHT31;67769;51.972;5.668;2023-05-07T13:58:07;26.2;44.4
78479;SHT31;67769;51.972;5.668;2023-05-07T14:00:38;26.3;43.2
78479;SHT31;67769;51.972;5.668;2023-05-07T14:03:07;26.4;42.5
78479;SHT31;67769;51.972;5.668;2023-05-07T14:05:39;26.4;43.9
78479;SHT31;67769;51.972;5.668;2023-05-07T14:08:10;26.4;43.6
78479;SHT31;67769;51.972;5.668;2023-05-07T14:10:41;26.4;43.7
78479;SHT31;67769;51.972;5.668;2023-05-07T14:13:11;26.4;44.0
78479;SHT31;67769;51.972;5.668;2023-05-07T14:15:40;26.3;44.2
78479;SHT31;67769;51.972;5.668;2023-05-07T14:18:13;26.3;44.4
78479;SHT31;67769;51.972;5.668;2023-05-07T14:20:43;26.2;44.8
78479;SHT31;67769;51.972;5.668;2023-05-07T14:23:17;26.1;44.9
78479;SHT31;67769;51.972;5.668;2023-05-07T14:25:47;26.1;45.2
78479;SHT31;67769;51.972;5.668;2023-05-07T14:28:17;26.0;45.5
78479;SHT31;67769;51.972;5.668;2023-05-07T14:30:46;26.0;45.7
78479;SHT31;67769;51.972;5.668;2023-05-07T14:33:17;25.9;45.8
78479;SHT31;67769;51.972;5.668;2023-05-07T14:35:46;25.9;45.4
78479;SHT31;67769;51.972;5.668;2023-05-07T14:38:19;25.8;45.6
78479;SHT31;67769;51.972;5.668;2023-05-07T14:40:49;25.8;45.6
78479;SHT31;67769;51.972;5.668;2023-05-07T14:43:19;25.7;45.8
78479;SHT31;67769;51.972;5.668;2023-05-07T14:45:49;25.7;45.6
78479;SHT31;67769;51.972;5.668;2023-05-07T14:48:18;25.7;46.2
78479;SHT31;67769;51.972;5.668;2023-05-07T14:50:48;25.6;46.4
78479;SHT31;67769;51.972;5.668;2023-05-07T14:53:18;25.6;46.0
78479;SHT31;67769;51.972;5.668;2023-05-07T14:55:48;25.6;46.2
78479;SHT31;67769;51.972;5.668;2023-05-07T14:58:18;25.6;46.1
78479;SHT31;67769;51.972;5.668;2023-05-07T15:00:48;25.5;46.9
78479;SHT31;67769;51.972;5.668;2023-05-07T15:03:17;25.5;46.5
78479;SHT31;67769;51.972;5.668;2023-05-07T15:05:50;25.5;46.0
78479;SHT31;67769;51.972;5.668;2023-05-07T15:08:19;25.5;46.1
78479;SHT31;67769;51.972;5.668;2023-05-07T15:10:49;25.4;46.5
78479;SHT31;67769;51.972;5.668;2023-05-07T15:13:19;25.4;46.5
78479;SHT31;67769;51.972;5.668;2023-05-07T15:15:48;25.4;45.8
78479;SHT31;67769;51.972;5.668;2023-05-07T15:18:18;25.3;45.3
78479;SHT31;67769;51.972;5.668;2023-05-07T15:20:48;25.2;45.7
78479;SHT31;67769;51.972;5.668;2023-05-07T15:23:20;25.0;46.0
78479;SHT31;67769;51.972;5.668;2023-05-07T15:25:49;24.9;46.6
78479;SHT31;67769;51.972;5.668;2023-05-07T15:28:19;24.7;46.9
78479;SHT31;67769;51.972;5.668;2023-05-07T15:30:48;24.6;47.0
78479;SHT31;67769;51.972;5.668;2023-05-07T15:33:18;24.4;46.9
78479;SHT31;67769;51.972;5.668;2023-05-07T15:35:48;24.3;46.1
78479;SHT31;67769;51.972;5.668;2023-05-07T15:38:17;24.1;46.6
78479;SHT31;67769;51.972;5.668;2023-05-07T15:40:47;23.9;47.3
78479;SHT31;67769;51.972;5.668;2023-05-07T15:43:17;23.7;48.4
78479;SHT31;67769;51.972;5.668;2023-05-07T15:45:47;23.6;51.4
78479;SHT31;67769;51.972;5.668;2023-05-07T15:48:16;23.4;52.5
78479;SHT31;67769;51.972;5.668;2023-05-07T15:50:46;23.2;53.5
78479;SHT31;67769;51.972;5.668;2023-05-07T15:53:16;23.0;53.7
78479;SHT31;67769;51.972;5.668;2023-05-07T15:55:45;22.7;55.6
78479;SHT31;67769;51.972;5.668;2023-05-07T15:58:15;22.5;56.5
78479;SHT31;67769;51.972;5.668;2023-05-07T16:00:46;22.3;58.4
78479;SHT31;67769;51.972;5.668;2023-05-07T16:03:16;22.2;58.5
78479;SHT31;67769;51.972;5.668;2023-05-07T16:05:46;22.1;59.2
78479;SHT31;67769;51.972;5.668;2023-05-07T16:08:16;22.0;59.2
78479;SHT31;67769;51.972;5.668;2023-05-07T16:10:45;21.9;60.1
78479;SHT31;67769;51.972;5.668;2023-05-07T16:13:15;21.8;60.8
78479;SHT31;67769;51.972;5.668;2023-05-07T16:15:46;21.8;60.5
78479;SHT31;67769;51.972;5.668;2023-05-07T16:18:16;21.7;59.6
78479;SHT31;67769;51.972;5.668;2023-05-07T16:20:45;21.7;60.9
78479;SHT31;67769;51.972;5.668;2023-05-07T16:23:16;21.6;59.9
78479;SHT31;67769;51.972;5.668;2023-05-07T16:25:45;21.6;60.1
78479;SHT31;67769;51.972;5.668;2023-05-07T16:28:15;21.5;59.3